sensor_id;sensor_type;location;lat;lon;timestamp;P1;durP1;ratioP1;P2;durP2;ratioP2
46288;SDS011;63105;46.158;14.604;2023-03-13T00:00:08;11.27;;;6.70;;
46288;SDS011;63105;46.158;14.604;2023-03-13T00:02:34;12.65;;;6.82;;
46288;SDS011;63105;46.158;14.604;2023-03-13T00:04:59;12.18;;;6.22;;
46288;SDS011;63105;46.158;14.604;2023-03-13T00:07:24;11.82;;;6.15;;
46288;SDS011;63105;46.158;14.604;2023-03-13T00:09:49;11.38;;;6.03;;
46288;SDS011;63105;46.158;14.604;2023-03-13T00:12:15;12.52;;;6.13;;
46288;SDS011;63105;46.158;14.604;2023-03-13T00:14:40;10.55;;;5.78;;
46288;SDS011;63105;46.158;14.604;2023-03-13T00:17:05;9.50;;;5.15;;
46288;SDS011;63105;46.158;14.604;2023-03-13T00:19:30;10.93;;;5.50;;
46288;SDS011;63105;46.158;14.604;2023-03-13T00:21:56;8.40;;;5.05;;
46288;SDS011;63105;46.158;14.604;2023-03-13T00:24:21;8.25;;;4.93;;
46288;SDS011;63105;46.158;14.604;2023-03-13T00:26:46;8.45;;;4.95;;
46288;SDS011;63105;46.158;14.604;2023-03-13T00:29:11;8.98;;;5.10;;
46288;SDS011;63105;46.158;14.604;2023-03-13T00:31:37;8.43;;;5.03;;
46288;SDS011;63105;46.158;14.604;2023-03-13T00:34:03;8.05;;;4.57;;
46288;SDS011;63105;46.158;14.604;2023-03-13T00:36:32;8.40;;;4.47;;
46288;SDS011;63105;46.158;14.604;2023-03-13T00:38:58;7.63;;;4.15;;
46288;SDS011;63105;46.158;14.604;2023-03-13T00:41:24;7.07;;;4.00;;
46288;SDS011;63105;46.158;14.604;2023-03-13T00:43:50;8.00;;;3.95;;
46288;SDS011;63105;46.158;14.604;2023-03-13T00:46:17;7.72;;;3.97;;
46288;SDS011;63105;46.158;14.604;2023-03-13T00:48:42;8.43;;;4.28;;
46288;SDS011;63105;46.158;14.604;2023-03-13T00:51:07;10.23;;;4.85;;
46288;SDS011;63105;46.158;14.604;2023-03-13T00:53:33;7.63;;;4.30;;
46288;SDS011;63105;46.158;14.604;2023-03-13T00:55:59;7.45;;;3.88;;
46288;SDS011;63105;46.158;14.604;2023-03-13T00:58:25;8.52;;;4.30;;
46288;SDS011;63105;46.158;14.604;2023-03-13T01:00:51;8.10;;;4.35;;
46288;SDS011;63105;46.158;14.604;2023-03-13T01:03:16;8.00;;;3.97;;
46288;SDS011;63105;46.158;14.604;2023-03-13T01:05:42;7.05;;;3.80;;
46288;SDS011;63105;46.158;14.604;2023-03-13T01:08:07;8.20;;;4.03;;
46288;SDS011;63105;46.158;14.604;2023-03-13T01:10:32;7.85;;;3.75;;
46288;SDS011;63105;46.158;14.604;2023-03-13T01:12:58;9.10;;;4.10;;
46288;SDS011;63105;46.158;14.604;2023-03-13T01:15:23;8.23;;;4.30;;
46288;SDS011;63105;46.158;14.604;2023-03-13T01:17:48;8.50;;;3.97;;
46288;SDS011;63105;46.158;14.604;2023-03-13T01:20:13;7.18;;;3.55;;
46288;SDS011;63105;46.158;14.604;2023-03-13T01:22:39;8.82;;;4.20;;
46288;SDS011;63105;46.158;14.604;2023-03-13T01:25:04;8.50;;;4.25;;
46288;SDS011;63105;46.158;14.604;2023-03-13T01:27:29;7.82;;;4.00;;
46288;SDS011;63105;46.158;14.604;2023-03-13T01:29:55;9.00;;;4.18;;
46288;SDS011;63105;46.158;14.604;2023-03-13T01:32:20;8.65;;;4.28;;
46288;SDS011;63105;46.158;14.604;2023-03-13T01:34:45;9.48;;;4.82;;
46288;SDS011;63105;46.158;14.604;2023-03-13T01:37:11;8.35;;;4.25;;
46288;SDS011;63105;46.158;14.604;2023-03-13T01:39:36;7.72;;;4.30;;
46288;SDS011;63105;46.158;14.604;2023-03-13T01:42:02;8.98;;;4.40;;
46288;SDS011;63105;46.158;14.604;2023-03-13T01:44:27;7.97;;;4.00;;
46288;SDS011;63105;46.158;14.604;2023-03-13T01:46:53;8.48;;;4.40;;
46288;SDS011;63105;46.158;14.604;2023-03-13T01:49:18;7.93;;;4.47;;
46288;SDS011;63105;46.158;14.604;2023-03-13T01:54:14;8.20;;;4.00;;
46288;SDS011;63105;46.158;14.604;2023-03-13T01:59:12;8.40;;;4.40;;
46288;SDS011;63105;46.158;14.604;2023-03-13T02:01:39;7.20;;;4.07;;
46288;SDS011;63105;46.158;14.604;2023-03-13T02:04:05;8.57;;;4.57;;
46288;SDS011;63105;46.158;14.604;2023-03-13T02:06:31;8.95;;;4.30;;
46288;SDS011;63105;46.158;14.604;2023-03-13T02:09:02;9.25;;;4.80;;
46288;SDS011;63105;46.158;14.604;2023-03-13T02:14:13;9.25;;;4.63;;
46288;SDS011;63105;46.158;14.604;2023-03-13T02:16:39;9.07;;;4.40;;
46288;SDS011;63105;46.158;14.604;2023-03-13T02:19:16;7.85;;;4.20;;
46288;SDS011;63105;46.158;14.604;2023-03-13T02:21:50;9.15;;;5.10;;
46288;SDS011;63105;46.158;14.604;2023-03-13T02:24:27;9.75;;;4.93;;
46288;SDS011;63105;46.158;14.604;2023-03-13T02:26:53;9.35;;;5.13;;
46288;SDS011;63105;46.158;14.604;2023-03-13T02:29:19;11.02;;;5.00;;
46288;SDS011;63105;46.158;14.604;2023-03-13T02:31:45;9.85;;;5.22;;
46288;SDS011;63105;46.158;14.604;2023-03-13T02:34:10;10.85;;;5.47;;
46288;SDS011;63105;46.158;14.604;2023-03-13T02:36:36;9.25;;;4.95;;
46288;SDS011;63105;46.158;14.604;2023-03-13T02:39:02;8.88;;;5.18;;
46288;SDS011;63105;46.158;14.604;2023-03-13T02:41:29;10.35;;;5.65;;
46288;SDS011;63105;46.158;14.604;2023-03-13T02:43:56;9.43;;;5.55;;
46288;SDS011;63105;46.158;14.604;2023-03-13T02:46:21;8.98;;;5.25;;
46288;SDS011;63105;46.158;14.604;2023-03-13T02:48:51;9.98;;;5.45;;
46288;SDS011;63105;46.158;14.604;2023-03-13T02:51:24;10.30;;;5.70;;
46288;SDS011;63105;46.158;14.604;2023-03-13T02:53:52;9.05;;;4.90;;
46288;SDS011;63105;46.158;14.604;2023-03-13T02:56:19;9.27;;;5.10;;
46288;SDS011;63105;46.158;14.604;2023-03-13T02:58:46;9.50;;;5.20;;
46288;SDS011;63105;46.158;14.604;2023-03-13T03:01:11;8.23;;;4.50;;
46288;SDS011;63105;46.158;14.604;2023-03-13T03:03:36;10.93;;;5.10;;
46288;SDS011;63105;46.158;14.604;2023-03-13T03:06:02;7.55;;;4.35;;
46288;SDS011;63105;46.158;14.604;2023-03-13T03:08:28;9.70;;;5.00;;
46288;SDS011;63105;46.158;14.604;2023-03-13T03:10:53;8.27;;;4.68;;
46288;SDS011;63105;46.158;14.604;2023-03-13T03:13:19;8.98;;;4.97;;
46288;SDS011;63105;46.158;14.604;2023-03-13T03:15:44;9.35;;;4.40;;
46288;SDS011;63105;46.158;14.604;2023-03-13T03:18:09;8.32;;;4.60;;
46288;SDS011;63105;46.158;14.604;2023-03-13T03:20:35;8.80;;;4.38;;
46288;SDS011;63105;46.158;14.604;2023-03-13T03:23:00;8.93;;;4.68;;
46288;SDS011;63105;46.158;14.604;2023-03-13T03:25:25;7.97;;;4.13;;
46288;SDS011;63105;46.158;14.604;2023-03-13T03:27:50;6.47;;;3.80;;
46288;SDS011;63105;46.158;14.604;2023-03-13T03:30:16;7.88;;;4.20;;
46288;SDS011;63105;46.158;14.604;2023-03-13T03:32:41;6.30;;;3.42;;
46288;SDS011;63105;46.158;14.604;2023-03-13T03:35:06;7.57;;;3.80;;
46288;SDS011;63105;46.158;14.604;2023-03-13T03:37:32;8.30;;;3.80;;
46288;SDS011;63105;46.158;14.604;2023-03-13T03:39:57;6.97;;;3.40;;
46288;SDS011;63105;46.158;14.604;2023-03-13T03:42:22;6.45;;;3.75;;
46288;SDS011;63105;46.158;14.604;2023-03-13T03:44:47;6.57;;;3.67;;
46288;SDS011;63105;46.158;14.604;2023-03-13T03:47:13;6.35;;;3.40;;
46288;SDS011;63105;46.158;14.604;2023-03-13T03:49:38;7.53;;;3.70;;
46288;SDS011;63105;46.158;14.604;2023-03-13T03:52:03;6.00;;;3.40;;
46288;SDS011;63105;46.158;14.604;2023-03-13T03:54:28;6.53;;;3.53;;
46288;SDS011;63105;46.158;14.604;2023-03-13T03:56:54;6.78;;;3.40;;
46288;SDS011;63105;46.158;14.604;2023-03-13T03:59:19;7.15;;;3.63;;
46288;SDS011;63105;46.158;14.604;2023-03-13T04:01:44;5.82;;;3.30;;
46288;SDS011;63105;46.158;14.604;2023-03-13T04:04:09;6.55;;;3.50;;
46288;SDS011;63105;46.158;14.604;2023-03-13T04:06:35;5.00;;;2.95;;
46288;SDS011;63105;46.158;14.604;2023-03-13T04:09:00;5.78;;;3.30;;
46288;SDS011;63105;46.158;14.604;2023-03-13T04:11:25;6.53;;;3.30;;
46288;SDS011;63105;46.158;14.604;2023-03-13T04:13:50;6.20;;;3.47;;
46288;SDS011;63105;46.158;14.604;2023-03-13T04:16:16;6.63;;;3.50;;
46288;SDS011;63105;46.158;14.604;2023-03-13T04:18:41;6.25;;;3.30;;
46288;SDS011;63105;46.158;14.604;2023-03-13T04:21:06;6.22;;;3.30;;
46288;SDS011;63105;46.158;14.604;2023-03-13T04:23:32;7.35;;;3.35;;
46288;SDS011;63105;46.158;14.604;2023-03-13T04:25:57;5.75;;;3.10;;
46288;SDS011;63105;46.158;14.604;2023-03-13T04:28:22;7.15;;;3.20;;
46288;SDS011;63105;46.158;14.604;2023-03-13T04:30:47;6.55;;;3.28;;
46288;SDS011;63105;46.158;14.604;2023-03-13T04:33:13;5.78;;;2.95;;
46288;SDS011;63105;46.158;14.604;2023-03-13T04:35:38;5.85;;;3.30;;
46288;SDS011;63105;46.158;14.604;2023-03-13T04:38:03;6.82;;;3.45;;
46288;SDS011;63105;46.158;14.604;2023-03-13T04:40:28;5.88;;;3.40;;
46288;SDS011;63105;46.158;14.604;2023-03-13T04:42:53;6.80;;;3.40;;
46288;SDS011;63105;46.158;14.604;2023-03-13T04:45:19;6.60;;;3.42;;
46288;SDS011;63105;46.158;14.604;2023-03-13T04:47:47;6.50;;;3.47;;
46288;SDS011;63105;46.158;14.604;2023-03-13T04:50:12;7.35;;;3.53;;
46288;SDS011;63105;46.158;14.604;2023-03-13T04:52:37;7.25;;;3.40;;
46288;SDS011;63105;46.158;14.604;2023-03-13T04:55:03;6.60;;;4.05;;
46288;SDS011;63105;46.158;14.604;2023-03-13T04:57:28;8.02;;;4.20;;
46288;SDS011;63105;46.158;14.604;2023-03-13T04:59:53;6.75;;;4.03;;
46288;SDS011;63105;46.158;14.604;2023-03-13T05:02:19;9.38;;;4.50;;
46288;SDS011;63105;46.158;14.604;2023-03-13T05:04:44;7.53;;;4.20;;
46288;SDS011;63105;46.158;14.604;2023-03-13T05:07:09;7.22;;;4.10;;
46288;SDS011;63105;46.158;14.604;2023-03-13T05:09:34;7.97;;;4.30;;
46288;SDS011;63105;46.158;14.604;2023-03-13T05:12:00;7.47;;;4.13;;
46288;SDS011;63105;46.158;14.604;2023-03-13T05:14:25;9.43;;;4.80;;
46288;SDS011;63105;46.158;14.604;2023-03-13T05:16:50;9.48;;;5.07;;
46288;SDS011;63105;46.158;14.604;2023-03-13T05:19:15;7.10;;;4.43;;
46288;SDS011;63105;46.158;14.604;2023-03-13T05:21:41;7.53;;;4.50;;
46288;SDS011;63105;46.158;14.604;2023-03-13T05:24:06;9.50;;;4.78;;
46288;SDS011;63105;46.158;14.604;2023-03-13T05:26:31;8.95;;;4.97;;
46288;SDS011;63105;46.158;14.604;2023-03-13T05:28:56;9.50;;;4.88;;
46288;SDS011;63105;46.158;14.604;2023-03-13T05:31:22;9.70;;;4.97;;
46288;SDS011;63105;46.158;14.604;2023-03-13T05:33:47;8.23;;;4.70;;
46288;SDS011;63105;46.158;14.604;2023-03-13T05:36:12;9.73;;;4.95;;
46288;SDS011;63105;46.158;14.604;2023-03-13T05:38:37;8.93;;;5.05;;
46288;SDS011;63105;46.158;14.604;2023-03-13T05:41:03;7.95;;;4.47;;
46288;SDS011;63105;46.158;14.604;2023-03-13T05:43:28;8.70;;;4.50;;
46288;SDS011;63105;46.158;14.604;2023-03-13T05:45:53;8.25;;;4.70;;
46288;SDS011;63105;46.158;14.604;2023-03-13T05:48:19;9.73;;;4.60;;
46288;SDS011;63105;46.158;14.604;2023-03-13T05:50:44;7.72;;;4.30;;
46288;SDS011;63105;46.158;14.604;2023-03-13T05:53:09;9.82;;;4.93;;
46288;SDS011;63105;46.158;14.604;2023-03-13T05:55:34;8.68;;;4.55;;
46288;SDS011;63105;46.158;14.604;2023-03-13T05:58:00;7.40;;;4.38;;
46288;SDS011;63105;46.158;14.604;2023-03-13T06:00:25;6.90;;;4.00;;
46288;SDS011;63105;46.158;14.604;2023-03-13T06:02:50;8.55;;;4.72;;
46288;SDS011;63105;46.158;14.604;2023-03-13T06:05:15;7.90;;;4.00;;
46288;SDS011;63105;46.158;14.604;2023-03-13T06:07:41;7.32;;;4.10;;
46288;SDS011;63105;46.158;14.604;2023-03-13T06:10:06;7.90;;;4.57;;
46288;SDS011;63105;46.158;14.604;2023-03-13T06:12:32;7.47;;;4.47;;
46288;SDS011;63105;46.158;14.604;2023-03-13T06:14:58;8.07;;;4.72;;
46288;SDS011;63105;46.158;14.604;2023-03-13T06:17:23;9.50;;;5.15;;
46288;SDS011;63105;46.158;14.604;2023-03-13T06:19:49;8.90;;;5.60;;
46288;SDS011;63105;46.158;14.604;2023-03-13T06:22:15;10.52;;;5.82;;
46288;SDS011;63105;46.158;14.604;2023-03-13T06:24:40;11.30;;;6.30;;
46288;SDS011;63105;46.158;14.604;2023-03-13T06:27:08;10.73;;;6.45;;
46288;SDS011;63105;46.158;14.604;2023-03-13T06:29:33;9.57;;;6.00;;
46288;SDS011;63105;46.158;14.604;2023-03-13T06:31:59;11.80;;;6.07;;
46288;SDS011;63105;46.158;14.604;2023-03-13T06:34:24;10.32;;;5.88;;
46288;SDS011;63105;46.158;14.604;2023-03-13T06:36:49;9.15;;;5.10;;
46288;SDS011;63105;46.158;14.604;2023-03-13T06:39:14;9.63;;;5.13;;
46288;SDS011;63105;46.158;14.604;2023-03-13T06:41:40;9.23;;;5.28;;
46288;SDS011;63105;46.158;14.604;2023-03-13T06:44:05;11.43;;;5.78;;
46288;SDS011;63105;46.158;14.604;2023-03-13T06:46:30;8.88;;;5.40;;
46288;SDS011;63105;46.158;14.604;2023-03-13T06:48:58;10.98;;;5.40;;
46288;SDS011;63105;46.158;14.604;2023-03-13T06:51:24;9.65;;;5.55;;
46288;SDS011;63105;46.158;14.604;2023-03-13T06:53:50;8.30;;;4.95;;
46288;SDS011;63105;46.158;14.604;2023-03-13T06:56:16;10.25;;;5.35;;
46288;SDS011;63105;46.158;14.604;2023-03-13T06:58:41;9.95;;;5.22;;
46288;SDS011;63105;46.158;14.604;2023-03-13T07:03:32;9.63;;;5.65;;
46288;SDS011;63105;46.158;14.604;2023-03-13T07:05:58;9.27;;;5.60;;
46288;SDS011;63105;46.158;14.604;2023-03-13T07:08:23;8.88;;;5.82;;
46288;SDS011;63105;46.158;14.604;2023-03-13T07:10:52;10.27;;;5.68;;
46288;SDS011;63105;46.158;14.604;2023-03-13T07:13:17;11.55;;;6.10;;
46288;SDS011;63105;46.158;14.604;2023-03-13T07:15:45;10.65;;;5.60;;
46288;SDS011;63105;46.158;14.604;2023-03-13T07:18:10;9.02;;;5.57;;
46288;SDS011;63105;46.158;14.604;2023-03-13T07:20:36;9.73;;;6.05;;
46288;SDS011;63105;46.158;14.604;2023-03-13T07:23:01;9.77;;;5.65;;
46288;SDS011;63105;46.158;14.604;2023-03-13T07:25:26;8.57;;;5.88;;
46288;SDS011;63105;46.158;14.604;2023-03-13T07:27:51;11.77;;;6.40;;
46288;SDS011;63105;46.158;14.604;2023-03-13T07:30:17;10.40;;;6.50;;
46288;SDS011;63105;46.158;14.604;2023-03-13T07:32:43;10.13;;;6.07;;
46288;SDS011;63105;46.158;14.604;2023-03-13T07:35:08;9.68;;;6.07;;
46288;SDS011;63105;46.158;14.604;2023-03-13T07:37:33;11.05;;;6.60;;
46288;SDS011;63105;46.158;14.604;2023-03-13T07:39:58;14.70;;;8.98;;
46288;SDS011;63105;46.158;14.604;2023-03-13T07:42:24;12.95;;;8.20;;
46288;SDS011;63105;46.158;14.604;2023-03-13T07:44:49;12.70;;;7.43;;
46288;SDS011;63105;46.158;14.604;2023-03-13T07:47:14;10.95;;;6.60;;
46288;SDS011;63105;46.158;14.604;2023-03-13T07:49:39;9.70;;;6.32;;
46288;SDS011;63105;46.158;14.604;2023-03-13T07:52:08;10.40;;;6.35;;
46288;SDS011;63105;46.158;14.604;2023-03-13T07:54:33;11.05;;;6.47;;
46288;SDS011;63105;46.158;14.604;2023-03-13T07:57:00;10.50;;;6.82;;
46288;SDS011;63105;46.158;14.604;2023-03-13T07:59:25;9.98;;;6.57;;
46288;SDS011;63105;46.158;14.604;2023-03-13T08:01:50;9.38;;;6.25;;
46288;SDS011;63105;46.158;14.604;2023-03-13T08:04:15;10.00;;;6.30;;
46288;SDS011;63105;46.158;14.604;2023-03-13T08:06:41;9.68;;;5.72;;
46288;SDS011;63105;46.158;14.604;2023-03-13T08:09:06;9.80;;;5.82;;
46288;SDS011;63105;46.158;14.604;2023-03-13T08:11:32;9.43;;;5.70;;
46288;SDS011;63105;46.158;14.604;2023-03-13T08:13:57;10.68;;;6.47;;
46288;SDS011;63105;46.158;14.604;2023-03-13T08:16:24;10.93;;;6.95;;
46288;SDS011;63105;46.158;14.604;2023-03-13T08:18:51;9.95;;;6.63;;
46288;SDS011;63105;46.158;14.604;2023-03-13T08:21:18;10.85;;;6.70;;
46288;SDS011;63105;46.158;14.604;2023-03-13T08:23:45;9.80;;;6.50;;
46288;SDS011;63105;46.158;14.604;2023-03-13T08:26:11;9.90;;;6.40;;
46288;SDS011;63105;46.158;14.604;2023-03-13T08:28:37;11.70;;;6.38;;
46288;SDS011;63105;46.158;14.604;2023-03-13T08:31:09;10.85;;;6.78;;
46288;SDS011;63105;46.158;14.604;2023-03-13T08:33:34;9.18;;;5.93;;
46288;SDS011;63105;46.158;14.604;2023-03-13T08:36:06;9.45;;;6.07;;
46288;SDS011;63105;46.158;14.604;2023-03-13T08:38:31;11.90;;;7.10;;
46288;SDS011;63105;46.158;14.604;2023-03-13T08:40:56;10.65;;;6.65;;
46288;SDS011;63105;46.158;14.604;2023-03-13T08:43:22;9.27;;;5.75;;
46288;SDS011;63105;46.158;14.604;2023-03-13T08:45:53;10.50;;;6.05;;
46288;SDS011;63105;46.158;14.604;2023-03-13T08:48:18;9.23;;;5.55;;
46288;SDS011;63105;46.158;14.604;2023-03-13T08:50:43;8.73;;;4.97;;
46288;SDS011;63105;46.158;14.604;2023-03-13T08:53:08;8.90;;;5.45;;
46288;SDS011;63105;46.158;14.604;2023-03-13T08:55:33;10.02;;;5.90;;
46288;SDS011;63105;46.158;14.604;2023-03-13T08:57:59;9.18;;;5.32;;
46288;SDS011;63105;46.158;14.604;2023-03-13T09:00:24;8.38;;;5.32;;
46288;SDS011;63105;46.158;14.604;2023-03-13T09:02:49;8.18;;;5.45;;
46288;SDS011;63105;46.158;14.604;2023-03-13T09:05:14;8.40;;;5.07;;
46288;SDS011;63105;46.158;14.604;2023-03-13T09:07:40;9.40;;;5.40;;
46288;SDS011;63105;46.158;14.604;2023-03-13T09:10:05;8.15;;;4.93;;
46288;SDS011;63105;46.158;14.604;2023-03-13T09:12:31;9.73;;;6.30;;
46288;SDS011;63105;46.158;14.604;2023-03-13T09:14:56;9.73;;;5.90;;
46288;SDS011;63105;46.158;14.604;2023-03-13T09:17:21;8.15;;;5.53;;
46288;SDS011;63105;46.158;14.604;2023-03-13T09:19:46;8.60;;;5.18;;
46288;SDS011;63105;46.158;14.604;2023-03-13T09:22:11;8.93;;;5.57;;
46288;SDS011;63105;46.158;14.604;2023-03-13T09:24:37;8.27;;;5.25;;
46288;SDS011;63105;46.158;14.604;2023-03-13T09:27:02;9.52;;;5.50;;
46288;SDS011;63105;46.158;14.604;2023-03-13T09:29:27;8.63;;;5.03;;
46288;SDS011;63105;46.158;14.604;2023-03-13T09:31:53;8.23;;;4.95;;
46288;SDS011;63105;46.158;14.604;2023-03-13T09:34:18;8.35;;;5.22;;
46288;SDS011;63105;46.158;14.604;2023-03-13T09:36:43;7.60;;;4.93;;
46288;SDS011;63105;46.158;14.604;2023-03-13T09:39:08;8.70;;;5.40;;
46288;SDS011;63105;46.158;14.604;2023-03-13T09:41:37;9.88;;;5.35;;
46288;SDS011;63105;46.158;14.604;2023-03-13T09:46:46;8.75;;;5.20;;
46288;SDS011;63105;46.158;14.604;2023-03-13T09:51:47;8.00;;;5.40;;
46288;SDS011;63105;46.158;14.604;2023-03-13T09:54:25;8.07;;;4.78;;
46288;SDS011;63105;46.158;14.604;2023-03-13T09:56:57;8.52;;;5.65;;
46288;SDS011;63105;46.158;14.604;2023-03-13T09:59:28;7.68;;;5.07;;
46288;SDS011;63105;46.158;14.604;2023-03-13T10:01:54;9.38;;;5.50;;
46288;SDS011;63105;46.158;14.604;2023-03-13T10:04:26;8.52;;;4.95;;
46288;SDS011;63105;46.158;14.604;2023-03-13T10:06:52;8.43;;;5.43;;
46288;SDS011;63105;46.158;14.604;2023-03-13T10:09:18;9.23;;;5.70;;
46288;SDS011;63105;46.158;14.604;2023-03-13T10:14:18;10.82;;;5.60;;
46288;SDS011;63105;46.158;14.604;2023-03-13T10:16:50;8.35;;;5.50;;
46288;SDS011;63105;46.158;14.604;2023-03-13T10:19:18;8.65;;;5.38;;
46288;SDS011;63105;46.158;14.604;2023-03-13T10:21:44;9.00;;;5.90;;
46288;SDS011;63105;46.158;14.604;2023-03-13T10:24:13;8.18;;;5.10;;
46288;SDS011;63105;46.158;14.604;2023-03-13T10:26:40;9.80;;;6.85;;
46288;SDS011;63105;46.158;14.604;2023-03-13T10:29:16;8.48;;;5.60;;
46288;SDS011;63105;46.158;14.604;2023-03-13T10:31:44;9.55;;;6.47;;
46288;SDS011;63105;46.158;14.604;2023-03-13T10:34:11;11.00;;;7.38;;
46288;SDS011;63105;46.158;14.604;2023-03-13T10:36:44;10.15;;;7.47;;
46288;SDS011;63105;46.158;14.604;2023-03-13T10:39:17;10.05;;;6.68;;
46288;SDS011;63105;46.158;14.604;2023-03-13T10:41:42;7.85;;;5.40;;
46288;SDS011;63105;46.158;14.604;2023-03-13T10:44:18;8.07;;;5.35;;
46288;SDS011;63105;46.158;14.604;2023-03-13T10:46:44;8.00;;;5.22;;
46288;SDS011;63105;46.158;14.604;2023-03-13T10:49:15;7.13;;;4.90;;
46288;SDS011;63105;46.158;14.604;2023-03-13T10:51:44;9.40;;;6.00;;
46288;SDS011;63105;46.158;14.604;2023-03-13T10:56:38;12.70;;;6.55;;
46288;SDS011;63105;46.158;14.604;2023-03-13T10:59:04;7.93;;;5.00;;
46288;SDS011;63105;46.158;14.604;2023-03-13T11:01:42;10.38;;;6.22;;
46288;SDS011;63105;46.158;14.604;2023-03-13T11:06:57;8.13;;;4.97;;
46288;SDS011;63105;46.158;14.604;2023-03-13T11:09:22;10.05;;;6.35;;
46288;SDS011;63105;46.158;14.604;2023-03-13T11:11:53;10.23;;;6.75;;
46288;SDS011;63105;46.158;14.604;2023-03-13T11:14:20;8.25;;;5.65;;
46288;SDS011;63105;46.158;14.604;2023-03-13T11:22:15;9.43;;;4.55;;
46288;SDS011;63105;46.158;14.604;2023-03-13T11:32:53;5.93;;;3.22;;
46288;SDS011;63105;46.158;14.604;2023-03-13T11:37:50;6.53;;;3.28;;
46288;SDS011;63105;46.158;14.604;2023-03-13T11:40:21;6.35;;;3.22;;
46288;SDS011;63105;46.158;14.604;2023-03-13T11:43:01;6.82;;;3.08;;
46288;SDS011;63105;46.158;14.604;2023-03-13T11:48:25;5.15;;;2.80;;
46288;SDS011;63105;46.158;14.604;2023-03-13T11:51:14;6.30;;;2.97;;
46288;SDS011;63105;46.158;14.604;2023-03-13T11:56:16;5.38;;;2.35;;
46288;SDS011;63105;46.158;14.604;2023-03-13T12:01:24;4.72;;;2.28;;
46288;SDS011;63105;46.158;14.604;2023-03-13T12:06:28;6.85;;;2.47;;
46288;SDS011;63105;46.158;14.604;2023-03-13T12:08:56;5.03;;;2.30;;
46288;SDS011;63105;46.158;14.604;2023-03-13T12:11:25;6.40;;;2.47;;
46288;SDS011;63105;46.158;14.604;2023-03-13T12:16:40;3.95;;;1.80;;
46288;SDS011;63105;46.158;14.604;2023-03-13T12:19:10;4.28;;;1.90;;
46288;SDS011;63105;46.158;14.604;2023-03-13T12:21:45;6.20;;;2.20;;
46288;SDS011;63105;46.158;14.604;2023-03-13T12:31:48;5.22;;;2.22;;
46288;SDS011;63105;46.158;14.604;2023-03-13T12:34:21;9.88;;;4.50;;
46288;SDS011;63105;46.158;14.604;2023-03-13T12:36:55;6.65;;;3.05;;
46288;SDS011;63105;46.158;14.604;2023-03-13T12:44:31;14.93;;;8.57;;
46288;SDS011;63105;46.158;14.604;2023-03-13T12:59:56;4.30;;;1.65;;
46288;SDS011;63105;46.158;14.604;2023-03-13T13:02:24;6.38;;;1.95;;
46288;SDS011;63105;46.158;14.604;2023-03-13T13:04:51;5.20;;;2.13;;
46288;SDS011;63105;46.158;14.604;2023-03-13T13:07:22;4.00;;;1.63;;
46288;SDS011;63105;46.158;14.604;2023-03-13T13:12:32;5.93;;;2.33;;
46288;SDS011;63105;46.158;14.604;2023-03-13T13:14:59;7.00;;;2.10;;
46288;SDS011;63105;46.158;14.604;2023-03-13T13:19:57;5.22;;;2.85;;
46288;SDS011;63105;46.158;14.604;2023-03-13T13:30:00;5.37;;;2.10;;
46288;SDS011;63105;46.158;14.604;2023-03-13T13:32:36;4.80;;;1.40;;
46288;SDS011;63105;46.158;14.604;2023-03-13T13:37:34;5.40;;;1.67;;
46288;SDS011;63105;46.158;14.604;2023-03-13T13:43:01;5.57;;;1.80;;
46288;SDS011;63105;46.158;14.604;2023-03-13T13:45:31;5.50;;;3.47;;
46288;SDS011;63105;46.158;14.604;2023-03-13T13:48:14;6.07;;;2.50;;
46288;SDS011;63105;46.158;14.604;2023-03-13T13:53:31;6.85;;;2.17;;
46288;SDS011;63105;46.158;14.604;2023-03-13T13:55:57;6.07;;;2.10;;
46288;SDS011;63105;46.158;14.604;2023-03-13T13:58:23;6.50;;;1.67;;
46288;SDS011;63105;46.158;14.604;2023-03-13T14:03:18;5.25;;;2.63;;
46288;SDS011;63105;46.158;14.604;2023-03-13T14:05:45;7.43;;;2.60;;
46288;SDS011;63105;46.158;14.604;2023-03-13T14:10:38;4.90;;;2.30;;
46288;SDS011;63105;46.158;14.604;2023-03-13T14:13:14;6.75;;;1.90;;
46288;SDS011;63105;46.158;14.604;2023-03-13T14:15:44;6.38;;;2.35;;
46288;SDS011;63105;46.158;14.604;2023-03-13T14:20:39;6.07;;;1.92;;
46288;SDS011;63105;46.158;14.604;2023-03-13T14:23:05;5.80;;;1.80;;
46288;SDS011;63105;46.158;14.604;2023-03-13T14:25:45;4.18;;;1.63;;
46288;SDS011;63105;46.158;14.604;2023-03-13T14:28:24;4.35;;;1.65;;
46288;SDS011;63105;46.158;14.604;2023-03-13T14:30:53;5.65;;;2.08;;
46288;SDS011;63105;46.158;14.604;2023-03-13T14:33:19;5.65;;;2.10;;
46288;SDS011;63105;46.158;14.604;2023-03-13T14:35:44;7.40;;;2.42;;
46288;SDS011;63105;46.158;14.604;2023-03-13T14:38:17;6.53;;;2.17;;
46288;SDS011;63105;46.158;14.604;2023-03-13T14:40:42;6.78;;;1.95;;
46288;SDS011;63105;46.158;14.604;2023-03-13T14:43:16;5.25;;;1.70;;
46288;SDS011;63105;46.158;14.604;2023-03-13T14:45:42;4.80;;;1.80;;
46288;SDS011;63105;46.158;14.604;2023-03-13T14:50:49;6.40;;;2.30;;
46288;SDS011;63105;46.158;14.604;2023-03-13T14:53:19;6.22;;;3.00;;
46288;SDS011;63105;46.158;14.604;2023-03-13T14:55:45;7.65;;;2.80;;
46288;SDS011;63105;46.158;14.604;2023-03-13T15:00:42;7.50;;;2.70;;
46288;SDS011;63105;46.158;14.604;2023-03-13T15:05:41;5.15;;;2.08;;
46288;SDS011;63105;46.158;14.604;2023-03-13T15:08:17;5.75;;;2.20;;
46288;SDS011;63105;46.158;14.604;2023-03-13T15:10:43;4.45;;;2.00;;
46288;SDS011;63105;46.158;14.604;2023-03-13T15:15:43;4.82;;;2.05;;
46288;SDS011;63105;46.158;14.604;2023-03-13T15:18:14;5.28;;;1.95;;
46288;SDS011;63105;46.158;14.604;2023-03-13T15:20:41;5.50;;;2.10;;
46288;SDS011;63105;46.158;14.604;2023-03-13T15:23:09;5.93;;;2.33;;
46288;SDS011;63105;46.158;14.604;2023-03-13T15:25:35;6.45;;;2.75;;
46288;SDS011;63105;46.158;14.604;2023-03-13T15:28:00;7.88;;;2.38;;
46288;SDS011;63105;46.158;14.604;2023-03-13T15:30:25;6.93;;;2.10;;
46288;SDS011;63105;46.158;14.604;2023-03-13T15:32:51;7.20;;;2.50;;
46288;SDS011;63105;46.158;14.604;2023-03-13T15:37:41;6.43;;;2.40;;
46288;SDS011;63105;46.158;14.604;2023-03-13T15:40:12;4.32;;;1.67;;
46288;SDS011;63105;46.158;14.604;2023-03-13T15:42:37;5.53;;;2.50;;
46288;SDS011;63105;46.158;14.604;2023-03-13T15:45:03;6.55;;;2.40;;
46288;SDS011;63105;46.158;14.604;2023-03-13T15:47:28;5.93;;;1.73;;
46288;SDS011;63105;46.158;14.604;2023-03-13T15:49:53;7.25;;;2.85;;
46288;SDS011;63105;46.158;14.604;2023-03-13T15:52:19;5.03;;;2.10;;
46288;SDS011;63105;46.158;14.604;2023-03-13T15:54:46;6.78;;;2.70;;
46288;SDS011;63105;46.158;14.604;2023-03-13T15:57:13;5.25;;;2.42;;
46288;SDS011;63105;46.158;14.604;2023-03-13T15:59:39;6.55;;;2.65;;
46288;SDS011;63105;46.158;14.604;2023-03-13T16:02:11;8.50;;;2.40;;
46288;SDS011;63105;46.158;14.604;2023-03-13T16:04:37;6.90;;;2.95;;
46288;SDS011;63105;46.158;14.604;2023-03-13T16:07:08;5.75;;;2.78;;
46288;SDS011;63105;46.158;14.604;2023-03-13T16:09:33;5.50;;;2.35;;
46288;SDS011;63105;46.158;14.604;2023-03-13T16:11:58;5.15;;;2.25;;
46288;SDS011;63105;46.158;14.604;2023-03-13T16:14:23;6.40;;;3.00;;
46288;SDS011;63105;46.158;14.604;2023-03-13T16:16:49;7.03;;;3.03;;
46288;SDS011;63105;46.158;14.604;2023-03-13T16:19:16;8.75;;;4.18;;
46288;SDS011;63105;46.158;14.604;2023-03-13T16:21:41;7.03;;;3.13;;
46288;SDS011;63105;46.158;14.604;2023-03-13T16:24:12;7.53;;;3.95;;
46288;SDS011;63105;46.158;14.604;2023-03-13T16:26:37;8.25;;;3.60;;
46288;SDS011;63105;46.158;14.604;2023-03-13T16:29:02;6.85;;;3.13;;